DW9679 Weather Reports


time (UTC)temp
C
wind
direction
speed
KPH
gust
KPH
rain 1hr
cm
rain 24hr
cm
rain mn
cm
humidity
%
barometer
mb
20190419070335 13 278 0.0 1.6 0.30 4.80 0.97 95 1014.7
20190419065844 13 277 0.0 4.8 0.41 4.80 0.97 95 1014.7
20190419065339 13 283 0.0 4.8 0.30 4.70 0.94 95 1014.7
20190419064836 13 285 0.0 1.6 0.41 4.70 0.94 95 1014.7
20190419064330 13 248 0.0 3.2 0.41 4.70 0.94 95 1014.6
20190419063839 13 287 1.6 3.2 0.51 4.70 0.94 95 1014.7
20190419063333 13 278 0.0 1.6 0.41 4.60 0.91 95 1014.6
20190419062839 13 257 0.0 1.6 0.51 4.60 0.91 95 1014.6
20190419062333 13 256 0.0 1.6 0.51 4.60 0.91 94 1014.5
20190419061843 13 256 0.0 3.2 0.61 4.60 0.91 94 1014.6
20190419061337 13 276 0.0 3.2 0.51 4.50 0.89 94 1014.5
20190419060846 13 269 0.0 3.2 0.51 4.50 0.89 94 1014.5
20190419060340 13 260 1.6 3.2 0.61 4.50 0.89 94 1014.6
20190419055837 13 281 0.0 1.6 0.51 4.39 0.89 95 1014.6
20190419055331 13 284 0.0 1.6 0.51 4.39 0.89 94 1014.5
20190419054840 13 278 0.0 1.6 0.51 4.29 0.86 95 1014.5
20190419054333 13 239 0.0 1.6 0.51 4.29 0.86 94 1014.4
20190419053842 13 209 0.0 0.0 0.41 4.19 0.84 94 1014.3
20190419053344 13 195 0.0 0.0 0.30 4.09 0.81 94 1014.3
20190419052835 13 187 0.0 0.0 0.41 4.09 0.81 94 1014.2
20190419052338 13 187 0.0 0.0 0.41 4.09 0.81 94 1014.2
20190419051832 13 187 0.0 1.6 0.41 3.99 0.79 94 1014.2
20190419051346 13 187 0.0 1.6 0.41 3.99 0.79 93 1014.1
20190419050343 13 224 0.0 3.2 0.51 3.91 0.79 93 1014.1
20190419045832 13 205 0.0 3.2 0.61 3.91 0.79 93 1014.1
20190419045341 13 224 0.0 4.8 0.79 3.91 0.79 93 1014.1
20190419044832 13 158 0.0 4.8 0.79 3.81 0.76 92 1014.1
20190419044346 13 150 0.0 6.4 0.89 3.81 0.76 93 1014.1
20190419043835 13 253 3.2 8.0 1.09 3.81 0.76 93 1013.9
20190419042834 13 155 1.6 8.0 1.09 3.71 0.74 93 1013.9
20190419042335 13 239 3.2 11.3 1.19 3.71 0.74 93 1013.9
20190419041844 13 155 4.8 12.9 1.09 3.61 0.71 93 1013.9
20190419041346 13 158 4.8 17.7 1.19 3.61 0.71 93 1014.0
20190419040842 13 225 8.0 17.7 1.30 3.51 0.71 94 1014.1
20190419040332 13 180 8.0 14.5 1.30 3.40 0.69 94 1014.0
20190419035829 13 232 4.8 11.3 1.40 3.30 0.66 94 1014.0
20190419035342 13 131 0.0 6.4 1.30 3.10 0.61 94 1013.9
20190419034839 13 214 1.6 14.5 1.19 3.00 0.61 93 1013.9
20190419034336 13 135 4.8 19.3 1.19 2.90 0.58 93 1013.9
20190419033841 13 214 8.0 19.3 1.09 2.69 0.53 93 1013.9
20190419033339 14 143 1.6 6.4 0.99 2.59 0.51 95 1013.9
20190419032828 14 137 3.2 6.4 1.09 2.59 0.51 95 1013.8
20190419032332 14 203 1.6 4.8 0.99 2.49 0.51 95 1013.8
20190419031842 14 198 1.6 4.8 1.09 2.49 0.51 95 1013.8
20190419031335 14 144 0.0 4.8 0.99 2.39 0.48 95 1013.8
20190419030845 14 180 1.6 4.8 0.89 2.21 0.43 95 1013.9
20190419030338 14 183 1.6 4.8 0.79 2.11 0.43 95 1013.8
20190419025839 14 155 1.6 4.8 0.71 1.91 0.38 95 1013.9
20190419025335 14 231 0.0 4.8 0.71 1.80 0.36 95 1013.8
20190419024846 14 200 1.6 4.8 0.99 1.80 0.36 95 1013.7
20190419024335 14 133 1.6 4.8 1.09 1.70 0.33 95 1013.6
20190419023845 14 132 1.6 6.4 1.09 1.60 0.33 95 1013.7
20190419023340 14 156 3.2 6.4 1.19 1.60 0.33 95 1013.9
20190419022830 14 235 1.6 4.8 1.19 1.50 0.30 95 1013.9
20190419022346 14 155 0.0 6.4 1.19 1.50 0.30 94 1013.9
20190419021836 13 82 1.6 6.4 1.19 1.40 0.28 94 1013.8
20190419021332 13 153 0.0 0.0 1.19 1.40 0.28 94 1013.9
20190419020841 13 153 0.0 1.6 1.09 1.30 0.25 94 1014.0
20190419020336 13 153 0.0 1.6 1.19 1.30 0.25 94 1014.0
20190419015833 13 139 0.0 1.6 1.09 1.19 0.23 94 1014.1
20190419015347 13 264 0.0 0.0 0.99 1.09 0.23 94 1014.0
20190419014844 13 265 0.0 0.0 0.71 0.79 0.15 93 1014.0
20190419014340 13 262 0.0 0.0 0.51 0.61 0.13 93 1014.1
20190419013831 13 261 0.0 0.0 0.41 0.51 0.10 93 1014.1
20190419013335 13 261 0.0 0.0 0.41 0.41 0.08 93 1014.0
20190419012842 13 262 0.0 0.0 0.30 0.30 0.05 92 1014.1
20190419012332 13 262 0.0 0.0 0.30 0.30 0.05 92 1014.0
20190419011841 13 262 0.0 0.0 0.20 0.20 0.05 92 1014.1
20190419011339 13 262 0.0 0.0 0.20 0.20 0.05 91 1014.0
20190419010837 13 262 0.0 0.0 0.20 0.20 0.05 91 1014.1
20190419010333 13 262 0.0 0.0 0.10 0.10 0.03 91 1014.2
20190419005348 13 262 0.0 1.6 0.10 0.10 0.03 90 1014.2
20190419004838 13 173 0.0 1.6 0.10 0.10 0.03 90 1014.2
20190419004341 13 172 0.0 1.6 0.10 0.10 0.03 89 1014.3
20190419003831 13 108 0.0 1.6 0.10 0.10 0.03 88 1014.0
20190419003346 13 69 0.0 1.6 0.00 0.00 0.00 88 1014.0
20190419002836 13 295 0.0 0.0 0.00 0.00 0.00 87 1014.1
20190419002331 13 295 0.0 1.6 0.00 0.00 0.00 87 1014.0
20190419001842 13 295 0.0 1.6 0.00 0.00 0.00 87 1014.3
20190419001337 13 295 0.0 0.0 0.00 0.00 0.00 87 1014.1
20190419000827 13 295 0.0 0.0 0.00 0.00 0.00 87 1014.2
20190419000343 13 295 0.0 0.0 0.00 0.00 0.00 86 1014.4
20190418235834 13 295 0.0 1.6 0.00 0.00 0.00 86 1014.4
20190418235345 13 298 0.0 0.0 0.00 0.00 0.00 86 1014.2
20190418234832 13 298 0.0 0.0 0.00 0.00 0.00 85 1013.8
20190418234327 13 264 0.0 0.0 0.00 0.00 0.00 85 1013.7
20190418233837 13 259 0.0 0.0 0.00 0.00 0.00 84 1014.1
20190418233411 13 258 0.0 1.6 0.00 0.00 0.00 84 1014.0
20190418232832 13 258 0.0 1.6 0.00 0.00 0.00 84 1014.0
20190418232334 13 259 0.0 1.6 0.00 0.00 0.00 84 1013.9
20190418231844 13 239 0.0 0.0 0.00 0.00 0.00 84 1013.8
20190418231333 13 239 0.0 0.0 0.00 0.00 0.00 84 1014.0
20190418230843 13 239 0.0 0.0 0.00 0.00 0.00 84 1013.9
20190418230338 13 239 0.0 1.6 0.00 0.00 0.00 84 1014.0
20190418225828 13 239 0.0 1.6 0.00 0.00 0.00 84 1014.2
20190418225328 13 16 0.0 1.6 0.00 0.00 0.00 84 1013.4
20190418224836 13 267 0.0 0.0 0.00 0.00 0.00 83 1013.6
20190418224331 13 267 0.0 0.0 0.00 0.00 0.00 84 1013.4
20190418223842 13 267 0.0 0.0 0.00 0.00 0.00 83 1013.7
20190418223344 13 267 0.0 0.0 0.00 0.00 0.00 83 1013.7
20190418222842 13 267 0.0 0.0 0.00 0.00 0.00 83 1013.9
20190418222337 13 267 0.0 0.0 0.00 0.00 0.00 82 1013.9
20190418221842 13 267 0.0 0.0 0.00 0.00 0.00 82 1013.9
20190418221334 13 267 0.0 0.0 0.00 0.00 0.00 82 1013.6
20190418220329 13 267 0.0 0.0 0.00 0.00 0.00 81 1013.5
20190418215838 13 267 0.0 0.0 0.00 0.00 0.00 81 1013.7
20190418215331 14 267 0.0 0.0 0.00 0.00 0.00 80 1013.9
20190418214841 14 267 0.0 0.0 0.00 0.00 0.00 79 1014.0
20190418214331 14 267 0.0 0.0 0.00 0.00 0.00 78 1013.8
20190418213833 14 267 0.0 0.0 0.00 0.00 0.00 78 1013.7
20190418213327 14 267 0.0 1.6 0.00 0.00 0.00 77 1013.3
20190418212845 14 309 0.0 1.6 0.00 0.00 0.00 77 1013.3
20190418212337 14 270 0.0 1.6 0.00 0.00 0.00 77 1013.3
20190418211827 14 257 0.0 1.6 0.00 0.00 0.00 76 1013.2
20190418211329 14 238 0.0 0.0 0.00 0.00 0.00 77 1013.4
20190418210839 14 238 0.0 0.0 0.00 0.00 0.00 77 1013.3
20190418210332 14 238 0.0 1.6 0.00 0.00 0.00 77 1012.9
20190418205840 14 238 0.0 3.2 0.00 0.00 0.00 78 1013.2
20190418205333 14 243 0.0 3.2 0.00 0.00 0.00 80 1013.5
20190418204829 14 235 0.0 1.6 0.00 0.00 0.00 80 1013.3
20190418204344 14 173 0.0 3.2 0.00 0.00 0.00 80 1013.2
20190418203834 14 150 0.0 4.8 0.00 0.00 0.00 80 1013.1
20190418203328 14 155 1.6 4.8 0.00 0.00 0.00 80 1013.2
20190418202837 14 235 0.0 4.8 0.00 0.00 0.00 80 1013.2
20190418202338 14 242 0.0 3.2 0.00 0.00 0.00 81 1013.0
20190418201833 14 133 0.0 3.2 0.00 0.00 0.00 82 1013.2
20190418201327 14 226 0.0 3.2 0.00 0.00 0.00 82 1012.9
20190418200840 14 232 0.0 3.2 0.00 0.00 0.00 82 1012.7
20190418200332 14 116 0.0 3.2 0.00 0.00 0.00 81 1012.3
20190418195827 14 232 0.0 4.8 0.00 0.00 0.00 81 1012.7
20190418195340 14 243 0.0 4.8 0.00 0.00 0.00 81 1012.6
20190418194830 14 232 0.0 1.6 0.00 0.00 0.00 81 1012.2
20190418194344 14 231 0.0 1.6 0.00 0.00 0.00 81 1012.1
20190418193832 14 272 0.0 1.6 0.00 0.00 0.00 81 1012.0
20190418193346 14 218 0.0 3.2 0.00 0.00 0.00 81 1011.8
20190418192834 14 214 1.6 3.2 0.00 0.00 0.00 80 1012.1
20190418192336 15 228 0.0 1.6 0.00 0.00 0.00 80 1011.7
20190418191833 15 269 0.0 3.2 0.00 0.00 0.00 79 1011.4
20190418191327 15 290 0.0 3.2 0.00 0.00 0.00 79 1011.7
20190418190830 15 210 0.0 3.2 0.00 0.00 0.00 79 1011.6
20190418190344 15 302 0.0 4.8 0.00 0.00 0.00 77 1011.3
20190418185835 15 315 1.6 6.4 0.00 0.00 0.00 76 1011.7
20190418185343 15 303 3.2 6.4 0.00 0.00 0.00 74 1011.7
20190418184833 15 218 1.6 4.8 0.00 0.00 0.00 72 1010.9
20190418184346 16 162 1.6 8.0 0.00 0.00 0.00 70 1011.3
20190418183833 16 299 3.2 9.7 0.00 0.00 0.00 70 1011.3
20190418183347 16 263 3.2 11.3 0.00 0.00 0.00 70 1011.1
20190418182837 16 295 4.8 11.3 0.00 0.00 0.00 66 1010.8
20190418182331 17 204 1.6 6.4 0.00 0.00 0.00 59 1010.6
20190418181840 17 267 0.0 3.2 0.00 0.00 0.00 58 1010.1
20190418181334 17 269 1.6 3.2 0.00 0.00 0.00 58 1010.1
20190418180828 17 167 0.0 1.6 0.00 0.00 0.00 58 1009.8
20190418180345 17 87 0.0 1.6 0.00 0.00 0.00 58 1009.8
20190418175835 17 31 0.0 4.8 0.00 0.00 0.00 58 1009.9
20190418175327 17 29 0.0 6.4 0.00 0.00 0.00 58 1009.6
20190418174835 17 38 3.2 9.7 0.00 0.00 0.00 58 1008.9
20190418174328 17 26 1.6 9.7 0.00 0.00 0.00 59 1009.5
20190418173845 17 25 3.2 9.7 0.00 0.00 0.00 59 1010.1
20190418173339 16 8 4.8 9.7 0.00 0.00 0.00 60 1009.8
20190418172830 16 56 6.4 11.3 0.00 0.00 0.00 61 1009.6
20190418172333 16 354 4.8 11.3 0.00 0.00 0.00 61 1009.9
20190418171844 16 11 3.2 11.3 0.00 0.00 0.00 62 1010.4
20190418171339 16 319 6.4 11.3 0.00 0.00 0.00 62 1010.6
20190418170836 16 16 4.8 8.0 0.00 0.00 0.00 62 1010.4
20190418170339 16 68 3.2 9.7 0.00 0.00 0.00 63 1010.9
20190418165833 16 1 3.2 12.9 0.00 0.00 0.00 63 1010.8
20190418165333 16 305 1.6 8.0 0.00 0.00 0.00 63 1010.8
20190418164841 16 44 3.2 8.0 0.00 0.00 0.00 63 1010.7
20190418164335 16 32 3.2 9.7 0.00 0.00 0.00 63 1010.9
20190418163831 16 300 3.2 9.7 0.00 0.00 0.00 63 1010.9
20190418163333 16 298 3.2 11.3 0.00 0.00 0.00 64 1010.9
20190418162842 16 266 3.2 11.3 0.00 0.00 0.00 64 1011.0
20190418162337 16 349 3.2 14.5 0.00 0.00 0.00 63 1011.0
20190418161845 16 294 6.4 17.7 0.00 0.00 0.00 63 1011.0
20190418161339 16 221 4.8 17.7 0.00 0.00 0.00 63 1011.1
20190418160828 16 253 6.4 14.5 0.00 0.00 0.00 63 1010.8
20190418160342 16 167 4.8 11.3 0.00 0.00 0.00 63 1010.6
20190418155844 16 342 4.8 11.3 0.00 0.00 0.00 62 1010.7
20190418155339 16 321 3.2 16.1 0.00 0.00 0.00 62 1010.6
20190418154845 16 274 8.0 20.9 0.00 0.00 0.00 61 1010.7
20190418154339 16 276 6.4 20.9 0.00 0.00 0.00 61 1010.7
20190418153845 17 357 4.8 19.3 0.00 0.00 0.00 61 1010.6
20190418153328 17 264 6.4 22.5 0.00 0.00 0.00 60 1010.6
20190418152838 17 287 4.8 9.7 0.00 0.00 0.00 60 1010.5
20190418152334 17 335 3.2 14.5 0.00 0.00 0.00 60 1010.4
20190418151844 17 342 4.8 20.9 0.00 0.00 0.00 61 1010.4
20190418151337 17 354 8.0 20.9 0.00 0.00 0.00 60 1010.4
20190418150846 17 276 8.0 25.7 0.00 0.00 0.00 60 1010.4
20190418150331 17 283 9.7 25.7 0.00 0.00 0.00 61 1010.4
20190418145840 17 235 6.4 22.5 0.00 0.00 0.00 61 1010.3
20190418145334 17 293 11.3 22.5 0.00 0.00 0.00 61 1010.4
20190418144844 17 324 8.0 27.4 0.00 0.00 0.00 62 1010.3
20190418144337 17 324 9.7 27.4 0.00 0.00 0.00 62 1010.3
20190418143831 18 274 8.0 20.9 0.00 0.00 0.00 62 1010.3
20190418143345 18 273 12.9 20.9 0.00 0.00 0.00 65 1010.0
20190418142834 18 285 4.8 12.9 0.00 0.00 0.00 64 1009.9
20190418142329 18 276 4.8 16.1 0.00 0.00 0.00 64 1009.9
20190418141837 18 335 4.8 16.1 0.00 0.00 0.00 64 1009.8
20190418141340 18 248 6.4 17.7 0.00 0.00 0.00 64 1009.8
20190418140837 18 255 4.8 14.5 0.00 0.00 0.00 65 1009.8
20190418140333 18 285 4.8 14.5 0.00 0.00 0.00 65 1009.9
20190418135842 18 287 4.8 16.1 0.00 0.00 0.00 64 1010.0
20190418135336 18 238 3.2 16.1 0.00 0.00 0.00 64 1010.1
20190418134845 18 274 1.6 11.3 0.00 0.00 0.00 64 1010.0
20190418134339 18 262 3.2 12.9 0.00 0.00 0.00 64 1010.0
20190418133829 18 292 4.8 12.9 0.00 0.00 0.00 62 1010.2
20190418133344 18 295 1.6 14.5 0.00 0.00 0.00 62 1010.2
20190418132834 19 235 1.6 14.5 0.00 0.00 0.00 62 1010.3
20190418132344 19 264 4.8 9.7 0.00 0.00 0.00 61 1010.3
20190418131831 19 271 1.6 9.7 0.00 0.00 0.00 61 1010.3
20190418131329 19 263 3.2 8.0 0.00 0.00 0.00 60 1010.3
20190418130839 19 255 3.2 11.3 0.00 0.00 0.00 59 1010.2
20190418130333 19 262 3.2 11.3 0.00 0.00 0.00 59 1010.2
20190418125843 20 270 3.2 6.4 0.00 0.00 0.00 56 1010.2
20190418125338 20 356 0.0 6.4 0.00 0.00 0.00 57 1010.1
20190418124830 20 336 1.6 8.0 0.00 0.00 0.00 58 1010.1
20190418124332 19 269 3.2 9.7 0.00 0.00 0.00 58 1010.2
20190418123829 19 248 3.2 9.7 0.00 0.00 0.00 58 1010.2
20190418123344 19 283 3.2 9.7 0.00 0.00 0.00 59 1010.2
20190418122835 19 287 0.0 1.6 0.00 0.00 0.00 62 1010.3
20190418122330 18 276 0.0 4.8 0.00 0.00 0.00 62 1010.3
20190418121841 18 276 1.6 4.8 0.00 0.00 0.00 63 1010.4
20190418121335 18 242 0.0 3.2 0.00 0.00 0.00 63 1010.5
20190418120844 18 284 0.0 4.8 0.00 0.00 0.00 63 1010.6
20190418120345 18 285 0.0 6.4 0.00 0.00 0.00 63 1010.7
20190418115830 18 253 3.2 8.0 0.00 0.00 0.00 64 1010.8
20190418115345 18 235 1.6 8.0 0.00 0.00 0.00 63 1010.7
20190418114835 18 262 1.6 6.4 0.00 0.00 0.00 65 1010.9
20190418114344 18 221 1.6 6.4 0.00 0.00 0.00 65 1010.8
20190418113833 18 228 1.6 6.4 0.00 0.00 0.00 65 1010.7
20190418113328 18 226 0.0 6.4 0.00 0.00 0.00 64 1010.5
20190418112837 18 152 1.6 3.2 0.00 0.00 0.00 65 1010.5
20190418112332 18 256 0.0 4.8 0.00 0.00 0.00 66 1010.6
20190418111843 18 252 0.0 4.8 0.00 0.00 0.00 66 1010.7
20190418111337 18 284 1.6 8.0 0.00 0.00 0.00 67 1010.9
20190418110846 18 248 1.6 8.0 0.00 0.00 0.00 67 1010.9
20190418110341 18 283 1.6 4.8 0.00 0.00 0.00 67 1011.0
20190418105829 18 232 1.6 3.2 0.00 0.00 0.00 67 1010.9
20190418105342 18 229 0.0 6.4 0.00 0.00 0.00 67 1010.8
20190418104847 17 270 1.6 6.4 0.00 0.00 0.00 66 1010.8
20190418104330 17 205 0.0 4.8 0.00 0.00 0.00 67 1010.7
20190418103839 17 280 0.0 3.2 0.00 0.00 0.00 67 1010.8
20190418103335 17 192 0.0 3.2 0.00 0.00 0.00 67 1010.8
20190418102844 17 211 0.0 4.8 0.00 0.00 0.00 68 1010.8
20190418102338 17 248 1.6 4.8 0.00 0.00 0.00 67 1011.0
20190418101833 17 210 0.0 3.2 0.00 0.00 0.00 67 1011.0
20190418101343 17 278 0.0 1.6 0.00 0.00 0.00 68 1011.1
20190418100832 17 129 0.0 3.2 0.00 0.00 0.00 68 1011.0
20190418100346 17 212 0.0 3.2 0.00 0.00 0.00 68 1011.0
20190418095842 17 150 0.0 4.8 0.00 0.00 0.00 68 1011.1
20190418095335 17 139 1.6 4.8 0.00 0.00 0.00 68 1011.1
20190418094844 17 142 0.0 4.8 0.00 0.00 0.00 68 1011.1
20190418094335 17 158 1.6 6.4 0.00 0.00 0.00 68 1011.2
20190418093844 17 160 1.6 6.4 0.00 0.00 0.00 68 1011.1
20190418093338 17 105 1.6 6.4 0.00 0.00 0.00 67 1011.1
20190418092828 17 169 3.2 8.0 0.00 0.00 0.00 66 1011.3
20190418092330 17 137 4.8 8.0 0.00 0.00 0.00 66 1011.3
20190418091827 17 123 0.0 1.6 0.00 0.00 0.00 67 1011.5
20190418091342 17 149 0.0 1.6 0.00 0.00 0.00 67 1011.6
20190418090832 17 138 0.0 1.6 0.00 0.00 0.00 68 1011.6
20190418090333 17 135 0.0 1.6 0.00 0.00 0.00 67 1011.6
20190418085842 16 113 0.0 0.0 0.00 0.00 0.00 68 1011.6
20190418085337 16 113 0.0 0.0 0.00 0.00 0.00 69 1011.8
20190418084846 16 113 0.0 0.0 0.00 0.00 0.00 69 1011.8
20190418084340 16 113 0.0 0.0 0.00 0.00 0.00 69 1011.8
20190418083835 16 113 0.0 0.0 0.00 0.00 0.00 69 1011.9
20190418083335 16 126 0.0 0.0 0.00 0.00 0.00 69 1011.9
20190418082843 16 204 0.0 0.0 0.00 0.00 0.00 69 1012.0
20190418082344 16 204 0.0 0.0 0.00 0.00 0.00 69 1012.0
20190418081834 16 204 0.0 0.0 0.00 0.00 0.00 68 1011.8
20190418081330 17 204 0.0 0.0 0.00 0.00 0.00 69 1011.7
20190418080838 17 204 0.0 0.0 0.00 0.00 0.00 67 1011.8
20190418080339 16 270 0.0 0.0 0.00 0.00 0.00 66 1011.9
20190418075830 16 270 0.0 0.0 0.00 0.00 0.00 67 1011.9
20190418075344 16 270 0.0 0.0 0.00 0.00 0.00 67 1011.8
20190418074843 16 269 0.0 0.0 0.00 0.00 0.00 67 1011.8
20190418074337 16 270 0.0 0.0 0.00 0.00 0.00 66 1011.7
20190418073846 16 270 0.0 0.0 0.00 0.00 0.00 67 1011.7
20190418073339 16 270 0.0 0.0 0.00 0.00 0.00 67 1011.5
20190418072829 16 269 0.0 3.2 0.00 0.00 0.00 67 1011.5
20190418072343 16 269 0.0 3.2 0.00 0.00 0.00 66 1011.4
20190418071834 16 270 0.0 1.6 0.00 0.00 0.00 66 1011.3
20190418071329 16 260 0.0 3.2 0.00 0.00 0.00 67 1011.3
20190418070835 16 305 0.0 3.2 0.00 0.00 0.00 67 1011.3